createdAt,value
2022-10-27T00:19:43.763Z,9.93
2022-10-27T00:22:10.470Z,11.13
2022-10-27T00:24:37.177Z,11.23
2022-10-27T00:27:03.949Z,10.80
2022-10-27T00:29:30.621Z,10.70
2022-10-27T00:31:57.266Z,11.33
2022-10-27T00:34:23.968Z,10.63
2022-10-27T00:36:50.681Z,11.40
2022-10-27T00:39:17.370Z,8.33
2022-10-27T00:41:45.480Z,10.17
2022-10-27T00:44:33.232Z,8.80
2022-10-27T00:47:04.266Z,10.27
2022-10-27T00:49:38.229Z,8.50
2022-10-27T00:52:10.109Z,11.00
2022-10-27T00:54:41.310Z,10.03
2022-10-27T00:57:10.266Z,9.87
2022-10-27T00:59:38.139Z,9.80
2022-10-27T01:02:06.867Z,12.77
2022-10-27T01:04:49.910Z,11.93
2022-10-27T01:07:18.609Z,11.43
2022-10-27T01:09:46.606Z,9.60
2022-10-27T01:12:13.321Z,9.57
2022-10-27T01:14:40.189Z,16.03
2022-10-27T01:17:24.244Z,11.33
2022-10-27T01:20:15.114Z,13.47
2022-10-27T01:22:52.389Z,13.17
2022-10-27T01:25:38.184Z,12.23
2022-10-27T01:28:16.942Z,13.30
2022-10-27T01:31:13.260Z,14.97
2022-10-27T01:33:58.774Z,15.03
2022-10-27T01:36:38.001Z,13.90
2022-10-27T01:39:23.788Z,11.43
2022-10-27T01:41:56.316Z,12.73
2022-10-27T01:44:28.829Z,11.07
2022-10-27T01:46:57.105Z,10.90
2022-10-27T01:49:24.026Z,14.33
2022-10-27T01:51:50.744Z,11.33
2022-10-27T01:54:20.505Z,10.40
2022-10-27T01:57:02.184Z,11.87
2022-10-27T01:59:53.846Z,14.67
2022-10-27T02:02:26.649Z,12.20
2022-10-27T02:04:58.948Z,13.80
2022-10-27T02:07:46.187Z,16.50
2022-10-27T02:10:27.600Z,11.60
2022-10-27T02:12:56.725Z,10.43
2022-10-27T02:15:51.867Z,12.43
2022-10-27T02:18:25.163Z,11.80
2022-10-27T02:20:55.864Z,13.03
2022-10-27T02:23:22.975Z,12.80
2022-10-27T02:26:03.001Z,11.23
2022-10-27T02:28:40.437Z,9.87
2022-10-27T02:31:08.917Z,10.83
2022-10-27T02:33:36.293Z,9.43
2022-10-27T02:36:03.148Z,10.33
2022-10-27T02:38:29.809Z,12.13
2022-10-27T02:40:56.524Z,12.50
2022-10-27T02:43:23.215Z,11.07
2022-10-27T02:45:49.842Z,14.47
2022-10-27T02:48:16.511Z,11.43
2022-10-27T02:50:43.239Z,14.17
2022-10-27T02:53:09.990Z,10.27
2022-10-27T02:55:36.665Z,11.53
2022-10-27T02:58:03.329Z,10.70
2022-10-27T03:00:29.970Z,10.67
2022-10-27T03:02:56.739Z,10.20
2022-10-27T03:05:23.425Z,14.10
2022-10-27T03:07:50.084Z,11.50
2022-10-27T03:10:16.846Z,15.57
2022-10-27T03:12:47.394Z,11.87
2022-10-27T03:15:14.736Z,10.97
2022-10-27T03:17:48.590Z,11.67
2022-10-27T03:20:16.575Z,12.40
2022-10-27T03:22:43.268Z,11.13
2022-10-27T03:25:11.747Z,10.43
2022-10-27T03:27:43.709Z,14.10
2022-10-27T03:30:16.284Z,11.73
2022-10-27T03:32:47.855Z,13.03
2022-10-27T03:35:15.725Z,11.60
2022-10-27T03:37:42.465Z,11.43
2022-10-27T03:40:09.672Z,10.87
2022-10-27T03:42:43.556Z,11.00
2022-10-27T03:45:11.932Z,11.03
2022-10-27T03:47:38.628Z,11.00
2022-10-27T03:50:06.302Z,16.43
2022-10-27T03:52:33.556Z,15.47
2022-10-27T03:55:00.383Z,15.63
2022-10-27T03:57:27.139Z,11.93
2022-10-27T03:59:53.771Z,12.00
2022-10-27T04:02:20.622Z,13.20
2022-10-27T04:04:47.336Z,14.40
2022-10-27T04:07:13.975Z,12.00
2022-10-27T04:09:40.651Z,11.60
2022-10-27T04:12:07.553Z,11.77
2022-10-27T04:14:34.260Z,11.47
2022-10-27T04:17:00.938Z,11.60
2022-10-27T04:19:27.563Z,12.50
2022-10-27T04:21:54.473Z,8.80
2022-10-27T04:24:21.203Z,13.67
2022-10-27T04:26:48.841Z,9.77
2022-10-27T04:29:15.533Z,9.77
2022-10-27T04:31:42.187Z,9.90
2022-10-27T04:34:08.965Z,10.70
2022-10-27T04:36:35.651Z,10.17
2022-10-27T04:39:02.304Z,12.07
2022-10-27T04:41:29.028Z,14.43
2022-10-27T04:43:55.702Z,8.23
2022-10-27T04:46:23.041Z,12.93
2022-10-27T04:48:49.665Z,10.57
2022-10-27T04:51:19.303Z,10.77
2022-10-27T04:53:48.989Z,11.63
2022-10-27T04:56:16.069Z,10.83
2022-10-27T04:58:42.989Z,9.63
2022-10-27T05:01:14.257Z,10.57
2022-10-27T05:03:41.525Z,9.90
2022-10-27T05:06:08.371Z,10.60
2022-10-27T05:08:35.038Z,9.53
2022-10-27T05:11:01.722Z,9.73
2022-10-27T05:13:28.369Z,9.97
2022-10-27T05:16:03.004Z,9.33
2022-10-27T05:18:30.515Z,13.00
2022-10-27T05:20:57.318Z,13.10
2022-10-27T05:23:24.133Z,12.27
2022-10-27T05:25:52.700Z,11.50
2022-10-27T05:28:20.084Z,10.43
2022-10-27T05:30:47.010Z,10.47
2022-10-27T05:33:14.099Z,9.53
2022-10-27T05:35:41.004Z,15.47
2022-10-27T05:38:07.948Z,12.90
2022-10-27T05:40:34.699Z,12.37
2022-10-27T05:43:03.115Z,9.73
2022-10-27T05:45:30.451Z,11.80
2022-10-27T05:48:07.765Z,10.77
2022-10-27T05:50:35.097Z,10.23
2022-10-27T05:53:02.227Z,12.03
2022-10-27T05:55:29.194Z,10.47
2022-10-27T05:57:58.351Z,10.87
2022-10-27T06:00:27.022Z,10.10
2022-10-27T06:02:57.393Z,12.07
2022-10-27T06:05:28.257Z,10.57
2022-10-27T06:07:55.415Z,11.10
2022-10-27T06:10:22.372Z,10.40
2022-10-27T06:12:49.039Z,12.93
2022-10-27T06:15:16.064Z,9.40
2022-10-27T06:17:42.800Z,10.47
2022-10-27T06:20:10.087Z,10.67
2022-10-27T06:22:36.739Z,10.73
2022-10-27T06:25:03.572Z,9.50
2022-10-27T06:27:31.344Z,11.80
2022-10-27T06:29:58.064Z,10.03
2022-10-27T06:34:52.472Z,11.73
2022-10-27T06:37:19.302Z,9.20
2022-10-27T06:39:46.750Z,10.27
2022-10-27T06:42:13.758Z,9.13
2022-10-27T06:44:40.466Z,14.10
2022-10-27T06:47:07.146Z,9.57
2022-10-27T06:49:33.831Z,12.63
2022-10-27T06:52:00.687Z,11.70
2022-10-27T06:54:27.392Z,16.07
2022-10-27T06:56:54.112Z,17.30
2022-10-27T06:59:20.832Z,15.33
2022-10-27T07:01:47.748Z,15.50
2022-10-27T07:04:14.744Z,9.53
2022-10-27T07:06:41.566Z,10.83
2022-10-27T07:09:09.892Z,10.00
2022-10-27T07:11:37.280Z,8.80
2022-10-27T07:14:04.770Z,9.67
2022-10-27T07:16:34.812Z,8.40
2022-10-27T07:19:02.402Z,10.00
2022-10-27T07:21:29.384Z,9.37
2022-10-27T07:23:56.143Z,8.90
2022-10-27T07:26:22.962Z,11.90
2022-10-27T07:28:49.642Z,12.93
2022-10-27T07:31:16.424Z,8.30
2022-10-27T07:33:43.115Z,8.60
2022-10-27T07:36:10.002Z,8.20
2022-10-27T07:38:36.770Z,8.37
2022-10-27T07:41:03.589Z,9.67
2022-10-27T07:43:30.326Z,8.57
2022-10-27T07:45:57.048Z,8.60
2022-10-27T07:48:23.760Z,10.20
2022-10-27T07:50:52.125Z,12.27
2022-10-27T07:53:19.455Z,13.97
2022-10-27T07:55:46.164Z,16.13
2022-10-27T07:58:15.493Z,9.40
2022-10-27T08:00:47.511Z,9.50
2022-10-27T08:03:17.646Z,8.90
2022-10-27T08:05:44.442Z,13.23
2022-10-27T08:08:12.084Z,13.70
2022-10-27T08:10:40.717Z,12.07
2022-10-27T08:13:08.648Z,18.30
2022-10-27T08:15:36.458Z,26.90
2022-10-27T08:18:04.217Z,12.13
2022-10-27T08:20:32.688Z,12.13
2022-10-27T08:23:01.116Z,19.57
2022-10-27T08:25:28.404Z,19.67
2022-10-27T08:27:56.074Z,20.63
2022-10-27T08:30:24.234Z,12.03
2022-10-27T08:32:55.130Z,10.50
2022-10-27T08:35:22.059Z,12.13
2022-10-27T08:37:48.858Z,17.20
2022-10-27T08:40:16.034Z,10.97
2022-10-27T08:43:03.165Z,13.93
2022-10-27T08:45:34.757Z,13.00
2022-10-27T08:48:01.919Z,15.87
2022-10-27T08:50:33.555Z,15.73
2022-10-27T08:53:05.777Z,14.77
2022-10-27T08:55:57.681Z,12.60
2022-10-27T08:58:47.901Z,11.20
2022-10-27T09:01:27.813Z,9.03
2022-10-27T09:04:18.972Z,10.27
2022-10-27T09:07:10.092Z,9.30
2022-10-27T09:09:42.740Z,10.23
2022-10-27T09:12:15.597Z,11.50
2022-10-27T09:15:14.326Z,9.27
2022-10-27T09:17:50.491Z,10.57
2022-10-27T09:20:20.263Z,11.40
2022-10-27T09:22:50.388Z,8.47
2022-10-27T09:25:20.587Z,10.43
2022-10-27T09:27:53.284Z,9.20
2022-10-27T09:30:20.735Z,10.57
2022-10-27T09:32:54.397Z,8.00
2022-10-27T09:35:25.062Z,12.70
2022-10-27T09:37:57.815Z,9.03
2022-10-27T09:40:26.113Z,9.33
2022-10-27T09:42:55.582Z,9.17
2022-10-27T09:45:24.899Z,8.13
2022-10-27T09:47:55.703Z,9.67
2022-10-27T09:51:01.205Z,12.50
2022-10-27T09:53:44.831Z,9.83
2022-10-27T09:56:38.507Z,15.20
2022-10-27T09:59:06.983Z,11.13
2022-10-27T10:01:39.665Z,11.30
2022-10-27T10:04:16.529Z,9.20
2022-10-27T10:06:43.326Z,7.27
2022-10-27T10:09:25.605Z,6.33
2022-10-27T10:12:11.431Z,11.20
2022-10-27T10:14:38.088Z,7.90
2022-10-27T10:17:04.811Z,5.87
2022-10-27T10:19:31.626Z,6.50
2022-10-27T10:22:00.346Z,6.43
2022-10-27T10:24:30.092Z,5.43
2022-10-27T10:26:59.388Z,5.40
2022-10-27T10:29:45.109Z,7.80
2022-10-27T10:32:31.189Z,10.37
2022-10-27T10:35:00.618Z,6.50
2022-10-27T10:37:32.504Z,9.23
2022-10-27T10:40:14.675Z,7.20
2022-10-27T10:42:45.530Z,5.80
2022-10-27T10:45:26.081Z,7.53
2022-10-27T10:47:59.866Z,7.10
2022-10-27T10:50:28.227Z,9.37
2022-10-27T10:52:57.670Z,5.93
2022-10-27T10:55:34.927Z,6.30
2022-10-27T10:58:02.428Z,6.60
2022-10-27T11:00:29.859Z,8.17
2022-10-27T11:03:06.187Z,7.10
2022-10-27T11:05:35.451Z,5.00
2022-10-27T11:08:04.589Z,5.33
2022-10-27T11:10:39.005Z,6.37
2022-10-27T11:13:15.471Z,10.50
2022-10-27T11:15:55.768Z,6.67
2022-10-27T11:18:29.730Z,5.37
2022-10-27T11:21:02.430Z,7.33
2022-10-27T11:23:43.544Z,9.30
2022-10-27T11:26:11.949Z,6.70
2022-10-27T11:29:10.510Z,9.87
2022-10-27T11:31:41.322Z,6.13
2022-10-27T11:34:18.946Z,6.33
2022-10-27T11:36:51.644Z,6.43
2022-10-27T11:39:31.351Z,5.27
2022-10-27T11:42:17.229Z,6.13
2022-10-27T11:44:47.192Z,9.33
2022-10-27T11:47:19.730Z,5.20
2022-10-27T11:49:53.028Z,7.00
2022-10-27T11:52:25.825Z,6.80
2022-10-27T11:54:53.568Z,7.27
2022-10-27T11:57:39.462Z,4.70
2022-10-27T12:00:15.454Z,7.37
2022-10-27T12:03:01.084Z,6.70
2022-10-27T12:06:03.807Z,4.47
2022-10-27T12:08:59.054Z,7.07
2022-10-27T12:11:31.615Z,5.20
2022-10-27T12:14:16.917Z,6.10
2022-10-27T12:16:52.115Z,7.53
2022-10-27T12:19:29.960Z,9.03
2022-10-27T12:22:10.223Z,8.00
2022-10-27T12:24:58.263Z,6.43
2022-10-27T12:27:35.861Z,5.50
2022-10-27T12:30:10.343Z,4.77
2022-10-27T12:32:40.458Z,4.63
2022-10-27T12:35:25.016Z,6.10
2022-10-27T12:38:06.438Z,4.57
2022-10-27T12:40:39.130Z,8.27
2022-10-27T12:43:11.695Z,5.83
2022-10-27T12:46:03.438Z,7.33
2022-10-27T12:48:33.374Z,6.93
2022-10-27T12:51:02.901Z,4.30
2022-10-27T12:53:41.448Z,8.60
2022-10-27T12:56:24.003Z,5.70
2022-10-27T12:59:09.049Z,7.50
2022-10-27T13:02:09.997Z,5.33
2022-10-27T13:04:53.586Z,4.10
2022-10-27T13:07:26.268Z,4.37
2022-10-27T13:10:36.819Z,5.47
2022-10-27T13:13:43.886Z,6.57
2022-10-27T13:16:19.800Z,4.47
2022-10-27T13:19:01.415Z,6.93
2022-10-27T13:21:44.711Z,5.97
2022-10-27T13:24:35.362Z,5.93
2022-10-27T13:27:28.134Z,7.97
2022-10-27T13:30:01.052Z,7.63
2022-10-27T13:32:30.275Z,3.40
2022-10-27T13:35:02.820Z,7.20
2022-10-27T13:37:50.137Z,8.30
2022-10-27T13:40:38.390Z,7.60
2022-10-27T13:43:23.267Z,6.60
2022-10-27T13:45:55.016Z,9.30
2022-10-27T13:48:21.724Z,7.27
2022-10-27T13:53:23.036Z,6.87
2022-10-27T13:55:58.486Z,4.17
2022-10-27T13:58:50.111Z,6.53
2022-10-27T14:01:46.154Z,4.70
2022-10-27T14:04:25.322Z,4.40
2022-10-27T14:07:01.083Z,5.70
2022-10-27T14:09:34.013Z,7.73
2022-10-27T14:12:17.934Z,8.70
2022-10-27T14:14:49.748Z,4.60
2022-10-27T14:17:23.528Z,3.47
2022-10-27T14:20:07.341Z,7.33
2022-10-27T14:22:37.119Z,5.43
2022-10-27T14:25:17.673Z,3.87
2022-10-27T14:27:45.175Z,5.60
2022-10-27T14:30:19.122Z,7.30
2022-10-27T14:32:46.065Z,4.80
2022-10-27T14:35:30.985Z,4.67
2022-10-27T14:37:58.012Z,7.37
2022-10-27T14:40:39.439Z,6.87
2022-10-27T14:43:23.761Z,6.43
2022-10-27T14:45:57.905Z,8.00
2022-10-27T14:48:28.764Z,6.03
2022-10-27T14:50:57.186Z,5.77
2022-10-27T14:53:29.852Z,4.70
2022-10-27T14:56:04.059Z,4.90
2022-10-27T14:58:30.799Z,8.00
2022-10-27T15:00:57.492Z,6.50
2022-10-27T15:03:32.581Z,5.47
2022-10-27T15:05:59.937Z,4.53
2022-10-27T15:08:35.120Z,3.93
2022-10-27T15:11:06.728Z,7.57
2022-10-27T15:13:34.049Z,6.37
2022-10-27T15:16:07.790Z,5.87
2022-10-27T15:18:40.729Z,4.80
2022-10-27T15:21:12.813Z,5.10
2022-10-27T15:23:42.166Z,5.13
2022-10-27T15:26:35.536Z,4.70
2022-10-27T15:29:03.825Z,6.07
2022-10-27T15:31:40.023Z,4.13
2022-10-27T15:34:28.605Z,9.67
2022-10-27T15:37:14.105Z,4.10
2022-10-27T15:39:41.268Z,6.23
2022-10-27T15:42:37.008Z,6.73
2022-10-27T15:45:47.283Z,5.10
2022-10-27T15:48:25.920Z,5.27
2022-10-27T15:51:08.813Z,5.53
2022-10-27T15:53:38.612Z,8.90
2022-10-27T15:56:22.511Z,6.53
2022-10-27T15:59:15.723Z,7.73
2022-10-27T16:01:46.173Z,7.97
2022-10-27T16:04:30.217Z,10.37
2022-10-27T16:07:17.311Z,9.60
2022-10-27T16:09:45.684Z,12.23
2022-10-27T16:12:14.150Z,10.33
2022-10-27T16:14:48.550Z,10.87
2022-10-27T16:17:19.501Z,12.03
2022-10-27T16:19:46.469Z,11.57
2022-10-27T16:22:18.704Z,13.40
2022-10-27T16:24:45.837Z,11.70
2022-10-27T16:27:23.205Z,11.33
2022-10-27T16:29:58.696Z,9.50
2022-10-27T16:32:30.673Z,12.30
2022-10-27T16:34:58.227Z,14.83
2022-10-27T16:37:26.980Z,16.37
2022-10-27T16:39:53.900Z,12.10
2022-10-27T16:42:21.355Z,13.20
2022-10-27T16:47:23.263Z,11.17
2022-10-27T16:49:51.520Z,16.03
2022-10-27T16:52:18.256Z,10.03
2022-10-27T16:54:44.951Z,11.87
2022-10-27T16:57:11.816Z,8.97
2022-10-27T16:59:38.717Z,11.37
2022-10-27T17:02:05.452Z,14.30
2022-10-27T17:04:33.263Z,9.83
2022-10-27T17:07:00.091Z,9.20
2022-10-27T17:09:27.007Z,8.43
2022-10-27T17:11:53.807Z,8.73
2022-10-27T17:14:20.600Z,13.40
2022-10-27T17:16:49.615Z,11.13
2022-10-27T17:19:16.428Z,12.67
2022-10-27T17:21:43.145Z,18.50
2022-10-27T17:24:10.225Z,15.87
2022-10-27T17:26:37.009Z,9.57
2022-10-27T17:29:05.366Z,13.43
2022-10-27T17:31:32.412Z,12.40
2022-10-27T17:34:00.060Z,11.53
2022-10-27T17:36:28.648Z,15.63
2022-10-27T17:38:55.898Z,10.20
2022-10-27T17:41:22.730Z,10.83
2022-10-27T17:43:50.236Z,20.00
2022-10-27T17:46:18.231Z,9.30
2022-10-27T17:48:53.669Z,10.60
2022-10-27T17:51:23.411Z,11.57
2022-10-27T17:53:51.280Z,18.40
2022-10-27T17:56:21.595Z,11.30
2022-10-27T17:58:49.551Z,15.20
2022-10-27T18:01:21.747Z,9.27
2022-10-27T18:03:51.141Z,12.50
2022-10-27T18:06:23.662Z,14.90
2022-10-27T18:08:53.928Z,12.83
2022-10-27T18:11:23.386Z,16.03
2022-10-27T18:13:51.381Z,14.00
2022-10-27T18:39:08.143Z,21.00
2022-10-27T18:41:36.497Z,11.10
2022-10-27T18:44:04.483Z,14.73
2022-10-27T18:46:31.458Z,18.40
2022-10-27T18:49:00.082Z,15.63
2022-10-27T18:51:29.823Z,15.40
2022-10-27T18:53:59.630Z,14.80
2022-10-27T18:56:26.933Z,16.27
2022-10-27T18:58:55.573Z,14.20
2022-10-27T19:01:23.234Z,14.63
2022-10-27T19:03:53.160Z,10.57
2022-10-27T19:06:20.302Z,12.43
2022-10-27T19:08:47.023Z,16.37
2022-10-27T19:11:15.611Z,14.80
2022-10-27T19:13:42.720Z,11.90
2022-10-27T19:16:15.664Z,14.47
2022-10-27T19:18:43.102Z,15.80
2022-10-27T19:21:16.384Z,11.00
2022-10-27T19:23:44.371Z,14.10
2022-10-27T19:26:17.657Z,11.80
2022-10-27T19:28:46.284Z,16.40
2022-10-27T19:31:18.943Z,14.60
2022-10-27T19:33:46.758Z,12.90
2022-10-27T19:36:18.512Z,17.37
2022-10-27T19:38:45.504Z,15.90
2022-10-27T19:41:21.730Z,10.07
2022-10-27T19:43:51.038Z,10.80
2022-10-27T19:46:18.597Z,13.20
2022-10-27T19:48:57.069Z,12.20
2022-10-27T19:51:26.418Z,12.47
2022-10-27T19:53:56.744Z,19.50
2022-10-27T19:56:25.726Z,11.70
2022-10-27T19:58:54.598Z,12.27
2022-10-27T20:01:23.926Z,13.30
2022-10-27T20:03:51.508Z,9.60
2022-10-27T20:06:18.786Z,12.33
2022-10-27T20:08:46.296Z,13.00
2022-10-27T20:11:19.235Z,14.53
2022-10-27T20:13:48.367Z,12.43
2022-10-27T20:16:21.222Z,9.47
2022-10-27T20:18:48.331Z,10.20
2022-10-27T20:21:15.819Z,13.83
2022-10-27T20:23:44.315Z,13.20
2022-10-27T20:26:29.998Z,13.23
2022-10-27T20:28:58.813Z,13.63
2022-10-27T20:31:26.283Z,10.23
2022-10-27T20:33:53.317Z,12.50
2022-10-27T20:36:20.439Z,11.50
2022-10-27T20:38:47.316Z,9.57
2022-10-27T20:41:19.294Z,9.00
2022-10-27T20:43:46.105Z,14.60
2022-10-27T20:46:13.059Z,15.53
2022-10-27T20:48:40.767Z,12.80
2022-10-27T20:51:15.250Z,10.40
2022-10-27T20:53:42.670Z,11.53
2022-10-27T20:56:17.636Z,12.30
2022-10-27T20:58:45.309Z,10.60
2022-10-27T21:01:32.734Z,15.03
2022-10-27T21:04:02.904Z,8.60
2022-10-27T21:06:35.050Z,12.87
2022-10-27T21:09:04.680Z,10.23
2022-10-27T21:11:32.217Z,9.60
2022-10-27T21:14:00.900Z,10.77
2022-10-27T21:16:28.339Z,11.77
2022-10-27T21:18:57.016Z,8.37
2022-10-27T21:21:25.655Z,11.90
2022-10-27T21:23:53.027Z,9.50
2022-10-27T21:26:21.493Z,10.50
2022-10-27T21:28:52.649Z,11.70
2022-10-27T21:31:21.181Z,13.87
2022-10-27T21:33:48.145Z,9.87
2022-10-27T21:36:14.969Z,14.40
2022-10-27T21:38:46.908Z,8.17
2022-10-27T21:41:16.014Z,12.13
2022-10-27T21:43:45.105Z,10.73
2022-10-27T21:46:13.853Z,10.60
2022-10-27T21:48:40.903Z,12.87
2022-10-27T21:51:07.747Z,11.03
2022-10-27T21:53:34.556Z,12.40
2022-10-27T21:56:04.878Z,9.70
2022-10-27T21:58:32.980Z,12.07
2022-10-27T22:01:08.932Z,9.23
2022-10-27T22:03:36.217Z,14.13
2022-10-27T22:06:04.454Z,11.80
2022-10-27T22:08:31.923Z,12.83
2022-10-27T22:11:06.511Z,13.80
2022-10-27T22:13:33.949Z,9.57
2022-10-27T22:16:09.056Z,12.03
2022-10-27T22:18:36.046Z,11.47
2022-10-27T22:21:03.480Z,12.20
2022-10-27T22:23:30.460Z,17.47
2022-10-27T22:26:17.990Z,14.50
2022-10-27T22:28:45.969Z,14.30
2022-10-27T22:31:24.242Z,10.47
2022-10-27T22:33:51.608Z,13.30
2022-10-27T22:36:20.268Z,9.70
2022-10-27T22:38:51.193Z,13.00
2022-10-27T22:41:17.859Z,16.33
2022-10-27T22:43:44.766Z,13.00
2022-10-27T22:46:23.120Z,10.97
2022-10-27T22:48:50.116Z,11.37
2022-10-27T22:51:18.818Z,10.67
2022-10-27T22:53:46.141Z,11.80
2022-10-27T22:56:15.666Z,11.23
2022-10-27T22:58:43.269Z,9.23
2022-10-27T23:01:19.613Z,11.20
2022-10-27T23:03:50.199Z,11.73
2022-10-27T23:06:16.859Z,12.93
2022-10-27T23:08:43.518Z,10.30
2022-10-27T23:11:10.171Z,13.57
2022-10-27T23:13:37.927Z,10.83
2022-10-27T23:16:08.960Z,13.17
2022-10-27T23:18:37.559Z,11.43
2022-10-27T23:21:06.683Z,10.83
2022-10-27T23:23:34.264Z,13.40
2022-10-27T23:26:01.599Z,13.80
2022-10-27T23:28:29.023Z,10.57
2022-10-27T23:30:55.980Z,9.50
2022-10-27T23:33:22.844Z,11.07
2022-10-27T23:36:00.688Z,8.67
2022-10-27T23:38:28.639Z,9.20
2022-10-27T23:40:57.711Z,11.97
2022-10-27T23:43:26.932Z,11.40
2022-10-27T23:46:02.204Z,8.13
2022-10-27T23:48:30.726Z,10.10
2022-10-27T23:50:58.145Z,11.13
2022-10-27T23:53:25.755Z,12.40
2022-10-27T23:55:57.553Z,11.50
2022-10-27T23:58:24.431Z,15.67
